sensor_id;sensor_type;location;lat;lon;timestamp;P1;durP1;ratioP1;P2;durP2;ratioP2
45688;SDS011;31400;48.132;20.872;2023-04-03T00:00:43;0.65;;;0.30;;
45688;SDS011;31400;48.132;20.872;2023-04-03T00:05:35;0.20;;;0.15;;
45688;SDS011;31400;48.132;20.872;2023-04-03T00:08:01;0.52;;;0.22;;
45688;SDS011;31400;48.132;20.872;2023-04-03T00:10:28;3.88;;;0.52;;
45688;SDS011;31400;48.132;20.872;2023-04-03T00:12:54;0.35;;;0.30;;
45688;SDS011;31400;48.132;20.872;2023-04-03T00:15:20;1.15;;;0.55;;
45688;SDS011;31400;48.132;20.872;2023-04-03T00:17:46;0.80;;;0.20;;
45688;SDS011;31400;48.132;20.872;2023-04-03T00:20:12;0.43;;;0.28;;
45688;SDS011;31400;48.132;20.872;2023-04-03T00:22:38;0.40;;;0.20;;
45688;SDS011;31400;48.132;20.872;2023-04-03T00:25:04;0.47;;;0.30;;
45688;SDS011;31400;48.132;20.872;2023-04-03T00:27:31;0.90;;;0.50;;
45688;SDS011;31400;48.132;20.872;2023-04-03T00:29:57;1.45;;;0.68;;
45688;SDS011;31400;48.132;20.872;2023-04-03T00:32:23;0.82;;;0.43;;
45688;SDS011;31400;48.132;20.872;2023-04-03T00:34:49;1.33;;;0.50;;
45688;SDS011;31400;48.132;20.872;2023-04-03T00:37:15;0.57;;;0.32;;
45688;SDS011;31400;48.132;20.872;2023-04-03T00:39:41;0.40;;;0.22;;
45688;SDS011;31400;48.132;20.872;2023-04-03T00:42:07;0.40;;;0.20;;
45688;SDS011;31400;48.132;20.872;2023-04-03T00:46:59;0.68;;;0.38;;
45688;SDS011;31400;48.132;20.872;2023-04-03T00:49:26;2.33;;;0.88;;
45688;SDS011;31400;48.132;20.872;2023-04-03T00:51:52;1.30;;;0.77;;
45688;SDS011;31400;48.132;20.872;2023-04-03T00:54:19;0.85;;;0.52;;
45688;SDS011;31400;48.132;20.872;2023-04-03T00:56:45;2.60;;;0.85;;
45688;SDS011;31400;48.132;20.872;2023-04-03T00:59:13;0.60;;;0.40;;
45688;SDS011;31400;48.132;20.872;2023-04-03T01:01:40;1.02;;;0.43;;
45688;SDS011;31400;48.132;20.872;2023-04-03T01:04:29;0.55;;;0.50;;
45688;SDS011;31400;48.132;20.872;2023-04-03T01:06:54;1.13;;;0.50;;
45688;SDS011;31400;48.132;20.872;2023-04-03T01:09:21;0.75;;;0.43;;
45688;SDS011;31400;48.132;20.872;2023-04-03T01:11:47;1.17;;;0.63;;
45688;SDS011;31400;48.132;20.872;2023-04-03T01:14:13;4.28;;;0.68;;
45688;SDS011;31400;48.132;20.872;2023-04-03T01:16:40;0.50;;;0.30;;
45688;SDS011;31400;48.132;20.872;2023-04-03T01:19:11;2.40;;;0.57;;
45688;SDS011;31400;48.132;20.872;2023-04-03T01:26:42;0.40;;;0.20;;
45688;SDS011;31400;48.132;20.872;2023-04-03T01:29:09;1.23;;;0.52;;
45688;SDS011;31400;48.132;20.872;2023-04-03T01:31:49;0.85;;;0.50;;
45688;SDS011;31400;48.132;20.872;2023-04-03T01:34:15;3.00;;;0.57;;
45688;SDS011;31400;48.132;20.872;2023-04-03T01:36:43;0.50;;;0.38;;
45688;SDS011;31400;48.132;20.872;2023-04-03T01:39:09;0.73;;;0.50;;
45688;SDS011;31400;48.132;20.872;2023-04-03T01:41:35;0.98;;;0.70;;
45688;SDS011;31400;48.132;20.872;2023-04-03T01:44:01;0.65;;;0.50;;
45688;SDS011;31400;48.132;20.872;2023-04-03T01:46:28;0.30;;;0.20;;
45688;SDS011;31400;48.132;20.872;2023-04-03T01:48:55;0.40;;;0.22;;
45688;SDS011;31400;48.132;20.872;2023-04-03T01:51:21;1.17;;;0.20;;
45688;SDS011;31400;48.132;20.872;2023-04-03T01:53:47;0.13;;;0.13;;
45688;SDS011;31400;48.132;20.872;2023-04-03T01:56:13;0.20;;;0.10;;
45688;SDS011;31400;48.132;20.872;2023-04-03T01:58:39;1.25;;;0.90;;
45688;SDS011;31400;48.132;20.872;2023-04-03T02:01:05;0.17;;;0.17;;
45688;SDS011;31400;48.132;20.872;2023-04-03T02:03:31;1.13;;;0.20;;
45688;SDS011;31400;48.132;20.872;2023-04-03T02:05:58;0.50;;;0.25;;
45688;SDS011;31400;48.132;20.872;2023-04-03T02:08:24;0.90;;;0.30;;
45688;SDS011;31400;48.132;20.872;2023-04-03T02:10:50;0.47;;;0.20;;
45688;SDS011;31400;48.132;20.872;2023-04-03T02:13:17;0.55;;;0.38;;
45688;SDS011;31400;48.132;20.872;2023-04-03T02:15:43;0.22;;;0.10;;
45688;SDS011;31400;48.132;20.872;2023-04-03T02:18:10;0.13;;;0.10;;
45688;SDS011;31400;48.132;20.872;2023-04-03T02:20:36;0.10;;;0.10;;
45688;SDS011;31400;48.132;20.872;2023-04-03T02:23:02;8.98;;;0.28;;
45688;SDS011;31400;48.132;20.872;2023-04-03T02:25:29;0.05;;;0.05;;
45688;SDS011;31400;48.132;20.872;2023-04-03T02:27:56;0.20;;;0.20;;
45688;SDS011;31400;48.132;20.872;2023-04-03T02:30:22;1.17;;;0.20;;
45688;SDS011;31400;48.132;20.872;2023-04-03T02:32:48;0.88;;;0.43;;
45688;SDS011;31400;48.132;20.872;2023-04-03T02:35:14;0.13;;;0.08;;
45688;SDS011;31400;48.132;20.872;2023-04-03T02:37:40;0.20;;;0.20;;
45688;SDS011;31400;48.132;20.872;2023-04-03T02:40:06;0.22;;;0.20;;
45688;SDS011;31400;48.132;20.872;2023-04-03T02:44:58;0.77;;;0.63;;
45688;SDS011;31400;48.132;20.872;2023-04-03T02:47:26;0.68;;;0.40;;
45688;SDS011;31400;48.132;20.872;2023-04-03T02:49:52;0.35;;;0.20;;
45688;SDS011;31400;48.132;20.872;2023-04-03T02:52:18;0.20;;;0.20;;
45688;SDS011;31400;48.132;20.872;2023-04-03T02:54:44;0.65;;;0.40;;
45688;SDS011;31400;48.132;20.872;2023-04-03T02:57:10;0.57;;;0.43;;
45688;SDS011;31400;48.132;20.872;2023-04-03T02:59:36;0.93;;;0.40;;
45688;SDS011;31400;48.132;20.872;2023-04-03T03:02:05;0.30;;;0.30;;
45688;SDS011;31400;48.132;20.872;2023-04-03T03:04:32;1.65;;;0.47;;
45688;SDS011;31400;48.132;20.872;2023-04-03T03:06:58;0.68;;;0.60;;
45688;SDS011;31400;48.132;20.872;2023-04-03T03:09:24;0.80;;;0.38;;
45688;SDS011;31400;48.132;20.872;2023-04-03T03:14:17;0.25;;;0.25;;
45688;SDS011;31400;48.132;20.872;2023-04-03T03:16:43;1.80;;;0.85;;
45688;SDS011;31400;48.132;20.872;2023-04-03T03:19:09;2.10;;;0.68;;
45688;SDS011;31400;48.132;20.872;2023-04-03T03:24:01;1.00;;;0.60;;
45688;SDS011;31400;48.132;20.872;2023-04-03T03:26:27;2.55;;;1.00;;
45688;SDS011;31400;48.132;20.872;2023-04-03T03:28:53;1.88;;;0.98;;
45688;SDS011;31400;48.132;20.872;2023-04-03T03:31:19;1.05;;;0.68;;
45688;SDS011;31400;48.132;20.872;2023-04-03T03:33:46;2.00;;;0.77;;
45688;SDS011;31400;48.132;20.872;2023-04-03T03:36:12;1.92;;;1.20;;
45688;SDS011;31400;48.132;20.872;2023-04-03T03:38:38;1.42;;;0.73;;
45688;SDS011;31400;48.132;20.872;2023-04-03T03:41:04;2.45;;;1.00;;
45688;SDS011;31400;48.132;20.872;2023-04-03T03:43:30;1.30;;;0.68;;
45688;SDS011;31400;48.132;20.872;2023-04-03T03:45:56;1.80;;;1.00;;
45688;SDS011;31400;48.132;20.872;2023-04-03T03:48:22;2.00;;;1.50;;
45688;SDS011;31400;48.132;20.872;2023-04-03T03:50:48;3.55;;;1.48;;
45688;SDS011;31400;48.132;20.872;2023-04-03T03:53:15;3.10;;;1.38;;
45688;SDS011;31400;48.132;20.872;2023-04-03T03:55:41;2.50;;;1.25;;
45688;SDS011;31400;48.132;20.872;2023-04-03T03:58:07;1.55;;;1.00;;
45688;SDS011;31400;48.132;20.872;2023-04-03T04:00:33;3.47;;;1.42;;
45688;SDS011;31400;48.132;20.872;2023-04-03T04:02:59;2.05;;;0.82;;
45688;SDS011;31400;48.132;20.872;2023-04-03T04:05:25;1.25;;;0.85;;
45688;SDS011;31400;48.132;20.872;2023-04-03T04:07:52;1.38;;;0.80;;
45688;SDS011;31400;48.132;20.872;2023-04-03T04:10:18;1.67;;;0.85;;
45688;SDS011;31400;48.132;20.872;2023-04-03T04:12:44;2.03;;;1.15;;
45688;SDS011;31400;48.132;20.872;2023-04-03T04:15:10;0.93;;;0.52;;
45688;SDS011;31400;48.132;20.872;2023-04-03T04:17:36;0.47;;;0.30;;
45688;SDS011;31400;48.132;20.872;2023-04-03T04:20:03;4.35;;;0.63;;
45688;SDS011;31400;48.132;20.872;2023-04-03T04:22:30;2.38;;;0.85;;
45688;SDS011;31400;48.132;20.872;2023-04-03T04:24:56;0.63;;;0.30;;
45688;SDS011;31400;48.132;20.872;2023-04-03T04:27:22;0.57;;;0.30;;
45688;SDS011;31400;48.132;20.872;2023-04-03T04:29:48;1.50;;;0.50;;
45688;SDS011;31400;48.132;20.872;2023-04-03T04:32:14;0.43;;;0.30;;
45688;SDS011;31400;48.132;20.872;2023-04-03T04:34:40;0.30;;;0.30;;
45688;SDS011;31400;48.132;20.872;2023-04-03T04:37:06;0.43;;;0.20;;
45688;SDS011;31400;48.132;20.872;2023-04-03T04:39:32;0.38;;;0.30;;
45688;SDS011;31400;48.132;20.872;2023-04-03T04:41:59;0.63;;;0.50;;
45688;SDS011;31400;48.132;20.872;2023-04-03T04:44:25;0.57;;;0.40;;
45688;SDS011;31400;48.132;20.872;2023-04-03T04:46:51;0.30;;;0.20;;
45688;SDS011;31400;48.132;20.872;2023-04-03T04:49:17;0.50;;;0.28;;
45688;SDS011;31400;48.132;20.872;2023-04-03T04:51:44;0.20;;;0.20;;
45688;SDS011;31400;48.132;20.872;2023-04-03T04:54:10;0.30;;;0.30;;
45688;SDS011;31400;48.132;20.872;2023-04-03T04:56:36;0.80;;;0.40;;
45688;SDS011;31400;48.132;20.872;2023-04-03T04:59:02;0.17;;;0.08;;
45688;SDS011;31400;48.132;20.872;2023-04-03T05:01:28;1.10;;;0.30;;
45688;SDS011;31400;48.132;20.872;2023-04-03T05:03:54;0.10;;;0.10;;
45688;SDS011;31400;48.132;20.872;2023-04-03T05:06:20;1.45;;;0.45;;
45688;SDS011;31400;48.132;20.872;2023-04-03T05:08:46;0.50;;;0.30;;
45688;SDS011;31400;48.132;20.872;2023-04-03T05:11:12;0.20;;;0.20;;
45688;SDS011;31400;48.132;20.872;2023-04-03T05:13:38;0.40;;;0.30;;
45688;SDS011;31400;48.132;20.872;2023-04-03T05:16:04;0.22;;;0.13;;
45688;SDS011;31400;48.132;20.872;2023-04-03T05:18:31;0.60;;;0.20;;
45688;SDS011;31400;48.132;20.872;2023-04-03T05:20:57;0.88;;;0.28;;
45688;SDS011;31400;48.132;20.872;2023-04-03T05:25:49;1.58;;;0.40;;
45688;SDS011;31400;48.132;20.872;2023-04-03T05:28:15;0.40;;;0.25;;
45688;SDS011;31400;48.132;20.872;2023-04-03T05:30:41;1.02;;;0.30;;
45688;SDS011;31400;48.132;20.872;2023-04-03T05:33:07;1.17;;;0.40;;
45688;SDS011;31400;48.132;20.872;2023-04-03T05:35:35;0.52;;;0.20;;
45688;SDS011;31400;48.132;20.872;2023-04-03T05:38:04;0.30;;;0.20;;
45688;SDS011;31400;48.132;20.872;2023-04-03T05:40:30;0.50;;;0.20;;
45688;SDS011;31400;48.132;20.872;2023-04-03T05:42:56;0.63;;;0.30;;
45688;SDS011;31400;48.132;20.872;2023-04-03T05:45:22;0.65;;;0.52;;
45688;SDS011;31400;48.132;20.872;2023-04-03T05:47:48;0.50;;;0.35;;
45688;SDS011;31400;48.132;20.872;2023-04-03T05:50:14;2.22;;;0.47;;
45688;SDS011;31400;48.132;20.872;2023-04-03T05:52:41;0.55;;;0.35;;
45688;SDS011;31400;48.132;20.872;2023-04-03T05:55:08;0.88;;;0.30;;
45688;SDS011;31400;48.132;20.872;2023-04-03T05:57:34;1.20;;;0.30;;
45688;SDS011;31400;48.132;20.872;2023-04-03T06:00:00;0.57;;;0.32;;
45688;SDS011;31400;48.132;20.872;2023-04-03T06:02:26;0.68;;;0.30;;
45688;SDS011;31400;48.132;20.872;2023-04-03T06:04:52;0.43;;;0.20;;
45688;SDS011;31400;48.132;20.872;2023-04-03T06:07:22;0.50;;;0.30;;
45688;SDS011;31400;48.132;20.872;2023-04-03T06:09:49;0.35;;;0.35;;
45688;SDS011;31400;48.132;20.872;2023-04-03T06:12:16;0.45;;;0.22;;
45688;SDS011;31400;48.132;20.872;2023-04-03T06:14:42;0.00;;;0.00;;
45688;SDS011;31400;48.132;20.872;2023-04-03T06:17:08;0.20;;;0.20;;
45688;SDS011;31400;48.132;20.872;2023-04-03T06:19:35;0.32;;;0.20;;
45688;SDS011;31400;48.132;20.872;2023-04-03T06:22:02;0.20;;;0.20;;
45688;SDS011;31400;48.132;20.872;2023-04-03T06:24:28;2.20;;;0.25;;
45688;SDS011;31400;48.132;20.872;2023-04-03T06:26:55;0.20;;;0.08;;
45688;SDS011;31400;48.132;20.872;2023-04-03T06:29:21;1.55;;;0.20;;
45688;SDS011;31400;48.132;20.872;2023-04-03T06:34:13;0.00;;;0.00;;
45688;SDS011;31400;48.132;20.872;2023-04-03T06:36:40;0.10;;;0.10;;
45688;SDS011;31400;48.132;20.872;2023-04-03T06:39:08;0.75;;;0.30;;
45688;SDS011;31400;48.132;20.872;2023-04-03T06:41:34;0.20;;;0.20;;
45688;SDS011;31400;48.132;20.872;2023-04-03T06:44:00;0.03;;;0.03;;
45688;SDS011;31400;48.132;20.872;2023-04-03T06:46:28;0.22;;;0.20;;
45688;SDS011;31400;48.132;20.872;2023-04-03T06:48:54;0.22;;;0.20;;
45688;SDS011;31400;48.132;20.872;2023-04-03T06:51:23;1.17;;;0.43;;
45688;SDS011;31400;48.132;20.872;2023-04-03T06:53:50;0.55;;;0.20;;
45688;SDS011;31400;48.132;20.872;2023-04-03T06:56:17;0.13;;;0.08;;
45688;SDS011;31400;48.132;20.872;2023-04-03T06:58:44;0.13;;;0.10;;
45688;SDS011;31400;48.132;20.872;2023-04-03T07:01:12;0.38;;;0.15;;
45688;SDS011;31400;48.132;20.872;2023-04-03T07:03:38;0.05;;;0.00;;
45688;SDS011;31400;48.132;20.872;2023-04-03T07:06:05;0.55;;;0.10;;
45688;SDS011;31400;48.132;20.872;2023-04-03T07:08:32;0.85;;;0.30;;
45688;SDS011;31400;48.132;20.872;2023-04-03T07:10:58;0.10;;;0.10;;
45688;SDS011;31400;48.132;20.872;2023-04-03T07:13:24;0.55;;;0.38;;
45688;SDS011;31400;48.132;20.872;2023-04-03T07:15:51;0.10;;;0.10;;
45688;SDS011;31400;48.132;20.872;2023-04-03T07:18:17;0.60;;;0.22;;
45688;SDS011;31400;48.132;20.872;2023-04-03T07:20:43;1.30;;;0.63;;
45688;SDS011;31400;48.132;20.872;2023-04-03T07:23:10;0.20;;;0.20;;
45688;SDS011;31400;48.132;20.872;2023-04-03T07:25:36;0.63;;;0.28;;
45688;SDS011;31400;48.132;20.872;2023-04-03T07:28:03;0.10;;;0.10;;
45688;SDS011;31400;48.132;20.872;2023-04-03T07:30:29;0.50;;;0.20;;
45688;SDS011;31400;48.132;20.872;2023-04-03T07:32:57;0.35;;;0.20;;
45688;SDS011;31400;48.132;20.872;2023-04-03T07:35:23;0.10;;;0.10;;
45688;SDS011;31400;48.132;20.872;2023-04-03T07:37:49;0.10;;;0.10;;
45688;SDS011;31400;48.132;20.872;2023-04-03T07:40:15;0.50;;;0.20;;
45688;SDS011;31400;48.132;20.872;2023-04-03T07:42:42;0.57;;;0.25;;
45688;SDS011;31400;48.132;20.872;2023-04-03T07:45:08;0.30;;;0.25;;
45688;SDS011;31400;48.132;20.872;2023-04-03T07:47:34;0.15;;;0.15;;
45688;SDS011;31400;48.132;20.872;2023-04-03T07:50:00;0.57;;;0.30;;
45688;SDS011;31400;48.132;20.872;2023-04-03T07:52:26;0.25;;;0.20;;
45688;SDS011;31400;48.132;20.872;2023-04-03T07:54:55;0.15;;;0.15;;
45688;SDS011;31400;48.132;20.872;2023-04-03T07:57:21;1.20;;;0.40;;
45688;SDS011;31400;48.132;20.872;2023-04-03T07:59:47;0.10;;;0.10;;
45688;SDS011;31400;48.132;20.872;2023-04-03T08:02:13;0.93;;;0.40;;
45688;SDS011;31400;48.132;20.872;2023-04-03T08:04:39;0.25;;;0.20;;
45688;SDS011;31400;48.132;20.872;2023-04-03T08:07:07;0.20;;;0.20;;
45688;SDS011;31400;48.132;20.872;2023-04-03T08:09:33;0.38;;;0.20;;
45688;SDS011;31400;48.132;20.872;2023-04-03T08:11:59;0.60;;;0.52;;
45688;SDS011;31400;48.132;20.872;2023-04-03T08:14:26;0.30;;;0.20;;
45688;SDS011;31400;48.132;20.872;2023-04-03T08:16:52;0.73;;;0.20;;
45688;SDS011;31400;48.132;20.872;2023-04-03T08:19:18;0.47;;;0.30;;
45688;SDS011;31400;48.132;20.872;2023-04-03T08:21:44;0.95;;;0.30;;
45688;SDS011;31400;48.132;20.872;2023-04-03T08:24:11;0.38;;;0.28;;
45688;SDS011;31400;48.132;20.872;2023-04-03T08:26:37;0.73;;;0.50;;
45688;SDS011;31400;48.132;20.872;2023-04-03T08:29:04;1.10;;;0.45;;
45688;SDS011;31400;48.132;20.872;2023-04-03T08:31:30;0.10;;;0.10;;
45688;SDS011;31400;48.132;20.872;2023-04-03T08:33:56;0.40;;;0.10;;
45688;SDS011;31400;48.132;20.872;2023-04-03T08:36:24;1.85;;;0.30;;
45688;SDS011;31400;48.132;20.872;2023-04-03T08:38:51;0.43;;;0.30;;
45688;SDS011;31400;48.132;20.872;2023-04-03T08:43:55;0.13;;;0.13;;
45688;SDS011;31400;48.132;20.872;2023-04-03T08:46:23;0.43;;;0.38;;
45688;SDS011;31400;48.132;20.872;2023-04-03T08:48:52;0.40;;;0.30;;
45688;SDS011;31400;48.132;20.872;2023-04-03T08:51:20;0.73;;;0.30;;
45688;SDS011;31400;48.132;20.872;2023-04-03T08:53:53;0.15;;;0.13;;
45688;SDS011;31400;48.132;20.872;2023-04-03T08:56:21;0.35;;;0.20;;
45688;SDS011;31400;48.132;20.872;2023-04-03T08:58:49;0.55;;;0.30;;
45688;SDS011;31400;48.132;20.872;2023-04-03T09:01:33;0.45;;;0.22;;
45688;SDS011;31400;48.132;20.872;2023-04-03T09:04:05;0.47;;;0.40;;
45688;SDS011;31400;48.132;20.872;2023-04-03T09:06:35;0.32;;;0.20;;
45688;SDS011;31400;48.132;20.872;2023-04-03T09:09:07;0.73;;;0.25;;
45688;SDS011;31400;48.132;20.872;2023-04-03T09:16:54;1.05;;;0.52;;
45688;SDS011;31400;48.132;20.872;2023-04-03T09:19:25;1.85;;;0.40;;
45688;SDS011;31400;48.132;20.872;2023-04-03T09:21:55;0.17;;;0.17;;
45688;SDS011;31400;48.132;20.872;2023-04-03T09:24:22;0.82;;;0.30;;
45688;SDS011;31400;48.132;20.872;2023-04-03T09:26:50;0.17;;;0.17;;
45688;SDS011;31400;48.132;20.872;2023-04-03T09:29:18;0.20;;;0.20;;
45688;SDS011;31400;48.132;20.872;2023-04-03T09:31:46;2.47;;;0.50;;
45688;SDS011;31400;48.132;20.872;2023-04-03T09:34:23;0.70;;;0.43;;
45688;SDS011;31400;48.132;20.872;2023-04-03T09:36:52;0.38;;;0.20;;
45688;SDS011;31400;48.132;20.872;2023-04-03T09:39:19;0.50;;;0.28;;
45688;SDS011;31400;48.132;20.872;2023-04-03T09:44:22;0.47;;;0.32;;
45688;SDS011;31400;48.132;20.872;2023-04-03T09:46:48;0.20;;;0.20;;
45688;SDS011;31400;48.132;20.872;2023-04-03T09:51:41;1.08;;;0.50;;
45688;SDS011;31400;48.132;20.872;2023-04-03T09:56:52;0.55;;;0.35;;
45688;SDS011;31400;48.132;20.872;2023-04-03T09:59:20;1.05;;;0.60;;
45688;SDS011;31400;48.132;20.872;2023-04-03T10:01:59;0.88;;;0.52;;
45688;SDS011;31400;48.132;20.872;2023-04-03T10:04:27;0.52;;;0.30;;
45688;SDS011;31400;48.132;20.872;2023-04-03T10:07:02;0.75;;;0.40;;
45688;SDS011;31400;48.132;20.872;2023-04-03T10:09:29;0.85;;;0.40;;
45688;SDS011;31400;48.132;20.872;2023-04-03T10:14:30;0.50;;;0.35;;
45688;SDS011;31400;48.132;20.872;2023-04-03T10:17:04;0.43;;;0.30;;
45688;SDS011;31400;48.132;20.872;2023-04-03T10:49:42;0.25;;;0.25;;
45688;SDS011;31400;48.132;20.872;2023-04-03T10:52:15;0.35;;;0.20;;
45688;SDS011;31400;48.132;20.872;2023-04-03T10:54:52;0.75;;;0.50;;
45688;SDS011;31400;48.132;20.872;2023-04-03T10:57:21;0.63;;;0.30;;
45688;SDS011;31400;48.132;20.872;2023-04-03T10:59:51;0.55;;;0.40;;
45688;SDS011;31400;48.132;20.872;2023-04-03T11:07:15;1.75;;;0.77;;
45688;SDS011;31400;48.132;20.872;2023-04-03T11:09:43;0.28;;;0.20;;
45688;SDS011;31400;48.132;20.872;2023-04-03T11:12:13;0.95;;;0.50;;
45688;SDS011;31400;48.132;20.872;2023-04-03T11:14:40;1.45;;;0.20;;
45688;SDS011;31400;48.132;20.872;2023-04-03T11:19:45;1.60;;;0.52;;
45688;SDS011;31400;48.132;20.872;2023-04-03T11:27:05;1.35;;;0.68;;
45688;SDS011;31400;48.132;20.872;2023-04-03T11:29:35;0.40;;;0.30;;
45688;SDS011;31400;48.132;20.872;2023-04-03T11:34:48;1.85;;;0.57;;
45688;SDS011;31400;48.132;20.872;2023-04-03T11:40:24;0.37;;;0.27;;
45688;SDS011;31400;48.132;20.872;2023-04-03T11:42:49;2.25;;;0.70;;
45688;SDS011;31400;48.132;20.872;2023-04-03T11:50:08;0.98;;;0.60;;
45688;SDS011;31400;48.132;20.872;2023-04-03T11:52:58;0.35;;;0.30;;
45688;SDS011;31400;48.132;20.872;2023-04-03T12:08:27;1.10;;;0.60;;
45688;SDS011;31400;48.132;20.872;2023-04-03T12:16:26;1.40;;;0.68;;
45688;SDS011;31400;48.132;20.872;2023-04-03T12:21:22;1.08;;;0.40;;
45688;SDS011;31400;48.132;20.872;2023-04-03T12:23:56;0.45;;;0.32;;
45688;SDS011;31400;48.132;20.872;2023-04-03T12:26:23;1.40;;;0.50;;
45688;SDS011;31400;48.132;20.872;2023-04-03T12:28:51;1.05;;;0.60;;
45688;SDS011;31400;48.132;20.872;2023-04-03T12:31:19;1.05;;;0.60;;
45688;SDS011;31400;48.132;20.872;2023-04-03T12:33:51;1.27;;;0.63;;
45688;SDS011;31400;48.132;20.872;2023-04-03T12:36:37;0.88;;;0.40;;
45688;SDS011;31400;48.132;20.872;2023-04-03T12:39:09;0.82;;;0.65;;
45688;SDS011;31400;48.132;20.872;2023-04-03T12:44:11;0.50;;;0.30;;
45688;SDS011;31400;48.132;20.872;2023-04-03T12:46:43;0.30;;;0.30;;
45688;SDS011;31400;48.132;20.872;2023-04-03T12:51:48;1.00;;;0.50;;
45688;SDS011;31400;48.132;20.872;2023-04-03T12:56:49;2.15;;;0.50;;
45688;SDS011;31400;48.132;20.872;2023-04-03T12:59:18;2.05;;;0.50;;
45688;SDS011;31400;48.132;20.872;2023-04-03T13:01:45;2.00;;;0.68;;
45688;SDS011;31400;48.132;20.872;2023-04-03T13:04:18;0.85;;;0.47;;
45688;SDS011;31400;48.132;20.872;2023-04-03T13:06:44;1.08;;;0.60;;
45688;SDS011;31400;48.132;20.872;2023-04-03T13:09:18;1.30;;;0.70;;
45688;SDS011;31400;48.132;20.872;2023-04-03T13:11:46;0.33;;;0.30;;
45688;SDS011;31400;48.132;20.872;2023-04-03T13:14:20;0.68;;;0.50;;
45688;SDS011;31400;48.132;20.872;2023-04-03T13:16:56;0.25;;;0.22;;
45688;SDS011;31400;48.132;20.872;2023-04-03T13:19:26;0.55;;;0.30;;
45688;SDS011;31400;48.132;20.872;2023-04-03T13:21:56;1.45;;;0.47;;
45688;SDS011;31400;48.132;20.872;2023-04-03T13:24:23;1.33;;;0.60;;
45688;SDS011;31400;48.132;20.872;2023-04-03T13:29:20;1.63;;;0.57;;
45688;SDS011;31400;48.132;20.872;2023-04-03T13:31:47;0.60;;;0.40;;
45688;SDS011;31400;48.132;20.872;2023-04-03T13:34:18;0.50;;;0.30;;
45688;SDS011;31400;48.132;20.872;2023-04-03T13:39:25;0.85;;;0.45;;
45688;SDS011;31400;48.132;20.872;2023-04-03T13:41:52;0.98;;;0.55;;
45688;SDS011;31400;48.132;20.872;2023-04-03T13:46:48;1.33;;;0.88;;
45688;SDS011;31400;48.132;20.872;2023-04-03T13:49:21;0.95;;;0.55;;
45688;SDS011;31400;48.132;20.872;2023-04-03T13:51:48;1.15;;;0.70;;
45688;SDS011;31400;48.132;20.872;2023-04-03T13:54:20;0.98;;;0.50;;
45688;SDS011;31400;48.132;20.872;2023-04-03T13:56:51;1.80;;;0.60;;
45688;SDS011;31400;48.132;20.872;2023-04-03T14:04:27;0.98;;;0.50;;
45688;SDS011;31400;48.132;20.872;2023-04-03T14:06:54;2.72;;;0.90;;
45688;SDS011;31400;48.132;20.872;2023-04-03T14:11:46;0.95;;;0.65;;
45688;SDS011;31400;48.132;20.872;2023-04-03T14:14:20;1.55;;;0.63;;
45688;SDS011;31400;48.132;20.872;2023-04-03T14:16:49;0.60;;;0.40;;
45688;SDS011;31400;48.132;20.872;2023-04-03T14:19:23;0.73;;;0.43;;
45688;SDS011;31400;48.132;20.872;2023-04-03T14:21:50;1.27;;;0.70;;
45688;SDS011;31400;48.132;20.872;2023-04-03T14:24:16;1.35;;;0.63;;
45688;SDS011;31400;48.132;20.872;2023-04-03T14:26:44;1.17;;;0.60;;
45688;SDS011;31400;48.132;20.872;2023-04-03T14:29:11;1.20;;;0.55;;
45688;SDS011;31400;48.132;20.872;2023-04-03T14:31:37;1.17;;;0.52;;
45688;SDS011;31400;48.132;20.872;2023-04-03T14:34:04;2.20;;;0.70;;
45688;SDS011;31400;48.132;20.872;2023-04-03T14:36:30;1.33;;;0.80;;
45688;SDS011;31400;48.132;20.872;2023-04-03T14:38:56;1.45;;;0.60;;
45688;SDS011;31400;48.132;20.872;2023-04-03T14:41:23;1.42;;;0.77;;
45688;SDS011;31400;48.132;20.872;2023-04-03T14:43:50;1.05;;;0.43;;
45688;SDS011;31400;48.132;20.872;2023-04-03T14:48:43;2.38;;;0.90;;
45688;SDS011;31400;48.132;20.872;2023-04-03T14:51:12;1.23;;;0.60;;
45688;SDS011;31400;48.132;20.872;2023-04-03T14:53:40;0.88;;;0.50;;
45688;SDS011;31400;48.132;20.872;2023-04-03T14:56:14;1.08;;;0.40;;
45688;SDS011;31400;48.132;20.872;2023-04-03T14:58:41;1.85;;;0.73;;
45688;SDS011;31400;48.132;20.872;2023-04-03T15:01:09;1.88;;;0.60;;
45688;SDS011;31400;48.132;20.872;2023-04-03T15:03:35;0.95;;;0.57;;
45688;SDS011;31400;48.132;20.872;2023-04-03T15:06:01;0.90;;;0.40;;
45688;SDS011;31400;48.132;20.872;2023-04-03T15:08:27;2.53;;;0.75;;
45688;SDS011;31400;48.132;20.872;2023-04-03T15:10:57;2.50;;;0.65;;
45688;SDS011;31400;48.132;20.872;2023-04-03T15:13:23;1.00;;;0.47;;
45688;SDS011;31400;48.132;20.872;2023-04-03T15:15:50;1.15;;;0.52;;
45688;SDS011;31400;48.132;20.872;2023-04-03T15:20:43;1.42;;;0.57;;
45688;SDS011;31400;48.132;20.872;2023-04-03T15:23:10;1.95;;;0.45;;
45688;SDS011;31400;48.132;20.872;2023-04-03T15:25:36;2.40;;;0.95;;
45688;SDS011;31400;48.132;20.872;2023-04-03T15:28:02;1.88;;;1.02;;
45688;SDS011;31400;48.132;20.872;2023-04-03T15:30:28;1.38;;;0.77;;
45688;SDS011;31400;48.132;20.872;2023-04-03T15:32:55;1.35;;;0.85;;
45688;SDS011;31400;48.132;20.872;2023-04-03T15:35:21;1.77;;;0.75;;
45688;SDS011;31400;48.132;20.872;2023-04-03T15:37:47;2.08;;;0.88;;
45688;SDS011;31400;48.132;20.872;2023-04-03T15:40:13;2.58;;;1.17;;
45688;SDS011;31400;48.132;20.872;2023-04-03T15:42:39;2.22;;;0.80;;
45688;SDS011;31400;48.132;20.872;2023-04-03T15:45:06;1.77;;;0.75;;
45688;SDS011;31400;48.132;20.872;2023-04-03T15:49:58;2.05;;;0.85;;
45688;SDS011;31400;48.132;20.872;2023-04-03T15:52:24;3.33;;;1.02;;
45688;SDS011;31400;48.132;20.872;2023-04-03T15:54:50;3.47;;;0.70;;
45688;SDS011;31400;48.132;20.872;2023-04-03T15:57:16;1.83;;;1.08;;
45688;SDS011;31400;48.132;20.872;2023-04-03T15:59:42;4.32;;;1.55;;
45688;SDS011;31400;48.132;20.872;2023-04-03T16:02:08;1.70;;;1.23;;
45688;SDS011;31400;48.132;20.872;2023-04-03T16:04:37;3.22;;;1.33;;
45688;SDS011;31400;48.132;20.872;2023-04-03T16:07:03;2.65;;;1.17;;
45688;SDS011;31400;48.132;20.872;2023-04-03T16:09:31;3.30;;;1.20;;
45688;SDS011;31400;48.132;20.872;2023-04-03T16:11:57;3.10;;;1.15;;
45688;SDS011;31400;48.132;20.872;2023-04-03T16:14:23;3.75;;;1.00;;
45688;SDS011;31400;48.132;20.872;2023-04-03T16:16:49;2.80;;;1.25;;
45688;SDS011;31400;48.132;20.872;2023-04-03T16:19:15;2.60;;;0.90;;
45688;SDS011;31400;48.132;20.872;2023-04-03T16:21:41;2.03;;;1.20;;
45688;SDS011;31400;48.132;20.872;2023-04-03T16:24:08;2.67;;;1.27;;
45688;SDS011;31400;48.132;20.872;2023-04-03T16:26:34;2.95;;;0.75;;
45688;SDS011;31400;48.132;20.872;2023-04-03T16:29:00;1.92;;;1.10;;
45688;SDS011;31400;48.132;20.872;2023-04-03T16:31:26;5.13;;;2.35;;
45688;SDS011;31400;48.132;20.872;2023-04-03T16:33:54;2.03;;;0.90;;
45688;SDS011;31400;48.132;20.872;2023-04-03T16:36:20;1.58;;;0.90;;
45688;SDS011;31400;48.132;20.872;2023-04-03T16:38:46;2.92;;;1.10;;
45688;SDS011;31400;48.132;20.872;2023-04-03T16:41:12;2.05;;;1.20;;
45688;SDS011;31400;48.132;20.872;2023-04-03T16:43:38;2.22;;;0.90;;
45688;SDS011;31400;48.132;20.872;2023-04-03T16:46:04;2.70;;;0.85;;
45688;SDS011;31400;48.132;20.872;2023-04-03T16:48:30;1.98;;;0.88;;
45688;SDS011;31400;48.132;20.872;2023-04-03T16:50:57;3.13;;;1.50;;
45688;SDS011;31400;48.132;20.872;2023-04-03T16:53:23;2.20;;;1.08;;
45688;SDS011;31400;48.132;20.872;2023-04-03T16:55:50;1.30;;;0.85;;
45688;SDS011;31400;48.132;20.872;2023-04-03T17:00:42;3.50;;;1.25;;